sensor_id;sensor_type;location;lat;lon;timestamp;temperature;humidity
35325;DHT22;35135;47.510;19.036;2023-04-01T00:00:30;22.70;51.80
35325;DHT22;35135;47.510;19.036;2023-04-01T00:02:56;22.70;51.80
35325;DHT22;35135;47.510;19.036;2023-04-01T00:05:22;22.70;51.80
35325;DHT22;35135;47.510;19.036;2023-04-01T00:07:50;22.70;51.80
35325;DHT22;35135;47.510;19.036;2023-04-01T00:10:16;22.70;51.80
35325;DHT22;35135;47.510;19.036;2023-04-01T00:12:42;22.70;51.70
35325;DHT22;35135;47.510;19.036;2023-04-01T00:15:11;22.70;51.80
35325;DHT22;35135;47.510;19.036;2023-04-01T00:17:37;22.70;51.70
35325;DHT22;35135;47.510;19.036;2023-04-01T00:20:05;22.70;51.80
35325;DHT22;35135;47.510;19.036;2023-04-01T00:22:32;22.70;51.80
35325;DHT22;35135;47.510;19.036;2023-04-01T00:24:59;22.60;51.80
35325;DHT22;35135;47.510;19.036;2023-04-01T00:27:25;22.60;51.80
35325;DHT22;35135;47.510;19.036;2023-04-01T00:29:51;22.70;51.70
35325;DHT22;35135;47.510;19.036;2023-04-01T00:32:17;22.60;51.60
35325;DHT22;35135;47.510;19.036;2023-04-01T00:34:43;22.60;51.60
35325;DHT22;35135;47.510;19.036;2023-04-01T00:37:10;22.60;51.60
35325;DHT22;35135;47.510;19.036;2023-04-01T00:39:36;22.60;51.60
35325;DHT22;35135;47.510;19.036;2023-04-01T00:42:03;22.60;52.00
35325;DHT22;35135;47.510;19.036;2023-04-01T00:44:32;22.60;51.70
35325;DHT22;35135;47.510;19.036;2023-04-01T00:46:58;22.60;51.70
35325;DHT22;35135;47.510;19.036;2023-04-01T00:49:28;22.60;51.70
35325;DHT22;35135;47.510;19.036;2023-04-01T00:51:57;22.60;51.70
35325;DHT22;35135;47.510;19.036;2023-04-01T00:54:25;22.60;51.60
35325;DHT22;35135;47.510;19.036;2023-04-01T00:59:29;22.60;51.80
35325;DHT22;35135;47.510;19.036;2023-04-01T01:01:56;22.60;51.70
35325;DHT22;35135;47.510;19.036;2023-04-01T01:04:30;22.60;51.70
35325;DHT22;35135;47.510;19.036;2023-04-01T01:07:26;22.60;51.80
35325;DHT22;35135;47.510;19.036;2023-04-01T01:10:25;22.60;51.80
35325;DHT22;35135;47.510;19.036;2023-04-01T01:15:46;22.60;51.60
35325;DHT22;35135;47.510;19.036;2023-04-01T01:26:09;22.50;51.70
35325;DHT22;35135;47.510;19.036;2023-04-01T01:34:46;22.60;51.70
35325;DHT22;35135;47.510;19.036;2023-04-01T01:37:20;22.50;51.60
35325;DHT22;35135;47.510;19.036;2023-04-01T01:39:52;22.50;51.60
35325;DHT22;35135;47.510;19.036;2023-04-01T01:42:20;22.60;51.60
35325;DHT22;35135;47.510;19.036;2023-04-01T01:44:49;22.50;51.60
35325;DHT22;35135;47.510;19.036;2023-04-01T01:47:17;22.60;51.70
35325;DHT22;35135;47.510;19.036;2023-04-01T01:49:45;22.50;51.60
35325;DHT22;35135;47.510;19.036;2023-04-01T01:52:12;22.50;52.20
35325;DHT22;35135;47.510;19.036;2023-04-01T01:54:51;22.50;51.50
35325;DHT22;35135;47.510;19.036;2023-04-01T01:57:21;22.50;51.60
35325;DHT22;35135;47.510;19.036;2023-04-01T01:59:50;22.50;51.50
35325;DHT22;35135;47.510;19.036;2023-04-01T02:02:18;22.50;51.60
35325;DHT22;35135;47.510;19.036;2023-04-01T02:04:46;22.50;51.50
35325;DHT22;35135;47.510;19.036;2023-04-01T02:07:26;22.50;51.60
35325;DHT22;35135;47.510;19.036;2023-04-01T02:09:53;22.50;51.50
35325;DHT22;35135;47.510;19.036;2023-04-01T02:12:21;22.50;51.30
35325;DHT22;35135;47.510;19.036;2023-04-01T02:15:06;22.50;51.40
35325;DHT22;35135;47.510;19.036;2023-04-01T02:17:34;22.50;51.40
35325;DHT22;35135;47.510;19.036;2023-04-01T02:20:12;22.50;51.50
35325;DHT22;35135;47.510;19.036;2023-04-01T02:22:49;22.50;51.50
35325;DHT22;35135;47.510;19.036;2023-04-01T02:25:25;22.50;51.40
35325;DHT22;35135;47.510;19.036;2023-04-01T02:27:52;22.50;51.30
35325;DHT22;35135;47.510;19.036;2023-04-01T02:30:19;22.40;51.30
35325;DHT22;35135;47.510;19.036;2023-04-01T02:32:46;22.50;51.30
35325;DHT22;35135;47.510;19.036;2023-04-01T02:35:16;22.50;51.40
35325;DHT22;35135;47.510;19.036;2023-04-01T02:37:43;22.40;51.30
35325;DHT22;35135;47.510;19.036;2023-04-01T02:40:12;22.40;51.20
35325;DHT22;35135;47.510;19.036;2023-04-01T02:42:38;22.50;51.40
35325;DHT22;35135;47.510;19.036;2023-04-01T02:45:05;22.40;51.20
35325;DHT22;35135;47.510;19.036;2023-04-01T02:47:31;22.50;51.40
35325;DHT22;35135;47.510;19.036;2023-04-01T02:49:57;22.50;51.40
35325;DHT22;35135;47.510;19.036;2023-04-01T02:52:26;22.40;51.30
35325;DHT22;35135;47.510;19.036;2023-04-01T02:54:52;22.40;51.20
35325;DHT22;35135;47.510;19.036;2023-04-01T02:57:18;22.40;51.20
35325;DHT22;35135;47.510;19.036;2023-04-01T02:59:44;22.40;51.30
35325;DHT22;35135;47.510;19.036;2023-04-01T03:02:09;22.40;51.20
35325;DHT22;35135;47.510;19.036;2023-04-01T03:04:35;22.40;51.20
35325;DHT22;35135;47.510;19.036;2023-04-01T03:07:01;22.40;51.20
35325;DHT22;35135;47.510;19.036;2023-04-01T03:09:27;22.40;51.10
35325;DHT22;35135;47.510;19.036;2023-04-01T03:11:54;22.40;51.10
35325;DHT22;35135;47.510;19.036;2023-04-01T03:14:19;22.40;51.10
35325;DHT22;35135;47.510;19.036;2023-04-01T03:16:45;22.40;51.10
35325;DHT22;35135;47.510;19.036;2023-04-01T03:19:11;22.40;51.10
35325;DHT22;35135;47.510;19.036;2023-04-01T03:21:36;22.40;51.00
35325;DHT22;35135;47.510;19.036;2023-04-01T03:24:02;22.40;51.10
35325;DHT22;35135;47.510;19.036;2023-04-01T03:26:28;22.40;51.10
35325;DHT22;35135;47.510;19.036;2023-04-01T03:28:53;22.40;51.20
35325;DHT22;35135;47.510;19.036;2023-04-01T03:31:20;22.40;51.10
35325;DHT22;35135;47.510;19.036;2023-04-01T03:33:46;22.40;51.00
35325;DHT22;35135;47.510;19.036;2023-04-01T03:36:11;22.40;51.20
35325;DHT22;35135;47.510;19.036;2023-04-01T03:38:39;22.40;51.00
35325;DHT22;35135;47.510;19.036;2023-04-01T03:41:05;22.40;51.10
35325;DHT22;35135;47.510;19.036;2023-04-01T03:43:32;22.40;51.10
35325;DHT22;35135;47.510;19.036;2023-04-01T03:45:57;22.40;51.00
35325;DHT22;35135;47.510;19.036;2023-04-01T03:48:24;22.40;51.00
35325;DHT22;35135;47.510;19.036;2023-04-01T03:50:50;22.40;51.10
35325;DHT22;35135;47.510;19.036;2023-04-01T03:53:16;22.40;51.10
35325;DHT22;35135;47.510;19.036;2023-04-01T03:55:42;22.40;51.60
35325;DHT22;35135;47.510;19.036;2023-04-01T03:58:08;22.40;51.00
35325;DHT22;35135;47.510;19.036;2023-04-01T04:00:34;22.40;51.00
35325;DHT22;35135;47.510;19.036;2023-04-01T04:03:00;22.40;51.00
35325;DHT22;35135;47.510;19.036;2023-04-01T04:05:26;22.40;51.00
35325;DHT22;35135;47.510;19.036;2023-04-01T04:07:53;22.40;51.00
35325;DHT22;35135;47.510;19.036;2023-04-01T04:10:19;22.30;50.90
35325;DHT22;35135;47.510;19.036;2023-04-01T04:12:45;22.30;50.90
35325;DHT22;35135;47.510;19.036;2023-04-01T04:15:11;22.40;51.00
35325;DHT22;35135;47.510;19.036;2023-04-01T04:17:37;22.30;51.00
35325;DHT22;35135;47.510;19.036;2023-04-01T04:20:03;22.30;51.00
35325;DHT22;35135;47.510;19.036;2023-04-01T04:22:29;22.30;51.00
35325;DHT22;35135;47.510;19.036;2023-04-01T04:24:55;22.30;51.00
35325;DHT22;35135;47.510;19.036;2023-04-01T04:27:20;22.30;50.90
35325;DHT22;35135;47.510;19.036;2023-04-01T04:29:46;22.30;50.90
35325;DHT22;35135;47.510;19.036;2023-04-01T04:32:12;22.30;50.90
35325;DHT22;35135;47.510;19.036;2023-04-01T04:34:37;22.30;51.00
35325;DHT22;35135;47.510;19.036;2023-04-01T04:37:03;22.30;50.90
35325;DHT22;35135;47.510;19.036;2023-04-01T04:39:29;22.30;50.90
35325;DHT22;35135;47.510;19.036;2023-04-01T04:41:55;22.30;50.90
35325;DHT22;35135;47.510;19.036;2023-04-01T04:44:21;22.30;50.90
35325;DHT22;35135;47.510;19.036;2023-04-01T04:46:46;22.30;50.90
35325;DHT22;35135;47.510;19.036;2023-04-01T04:49:12;22.30;50.90
35325;DHT22;35135;47.510;19.036;2023-04-01T04:51:38;22.30;50.80
35325;DHT22;35135;47.510;19.036;2023-04-01T04:54:05;22.30;50.90
35325;DHT22;35135;47.510;19.036;2023-04-01T04:56:31;22.30;50.80
35325;DHT22;35135;47.510;19.036;2023-04-01T04:58:57;22.30;50.90
35325;DHT22;35135;47.510;19.036;2023-04-01T05:01:23;22.30;50.70
35325;DHT22;35135;47.510;19.036;2023-04-01T05:03:49;22.40;50.80
35325;DHT22;35135;47.510;19.036;2023-04-01T05:06:16;22.40;50.80
35325;DHT22;35135;47.510;19.036;2023-04-01T05:08:43;22.30;50.80
35325;DHT22;35135;47.510;19.036;2023-04-01T05:11:13;22.40;51.00
35325;DHT22;35135;47.510;19.036;2023-04-01T05:13:38;22.40;51.00
35325;DHT22;35135;47.510;19.036;2023-04-01T05:16:11;22.40;51.00
35325;DHT22;35135;47.510;19.036;2023-04-01T05:18:37;22.40;51.50
35325;DHT22;35135;47.510;19.036;2023-04-01T05:21:04;22.40;50.80
35325;DHT22;35135;47.510;19.036;2023-04-01T05:23:31;22.40;50.90
35325;DHT22;35135;47.510;19.036;2023-04-01T05:25:56;22.40;50.80
35325;DHT22;35135;47.510;19.036;2023-04-01T05:28:22;22.40;50.80
35325;DHT22;35135;47.510;19.036;2023-04-01T05:30:48;22.40;50.80
35325;DHT22;35135;47.510;19.036;2023-04-01T05:33:14;22.50;50.70
35325;DHT22;35135;47.510;19.036;2023-04-01T05:35:40;22.50;50.60
35325;DHT22;35135;47.510;19.036;2023-04-01T05:38:06;22.50;50.60
35325;DHT22;35135;47.510;19.036;2023-04-01T05:40:32;22.50;50.50
35325;DHT22;35135;47.510;19.036;2023-04-01T05:42:59;22.60;50.40
35325;DHT22;35135;47.510;19.036;2023-04-01T05:45:24;22.70;50.20
35325;DHT22;35135;47.510;19.036;2023-04-01T05:47:50;22.70;50.00
35325;DHT22;35135;47.510;19.036;2023-04-01T05:50:16;22.80;49.80
35325;DHT22;35135;47.510;19.036;2023-04-01T05:52:42;22.80;49.70
35325;DHT22;35135;47.510;19.036;2023-04-01T05:55:08;22.80;49.70
35325;DHT22;35135;47.510;19.036;2023-04-01T05:57:33;22.90;49.60
35325;DHT22;35135;47.510;19.036;2023-04-01T05:59:59;22.80;49.50
35325;DHT22;35135;47.510;19.036;2023-04-01T06:02:25;22.80;49.50
35325;DHT22;35135;47.510;19.036;2023-04-01T06:05:01;22.80;49.60
35325;DHT22;35135;47.510;19.036;2023-04-01T06:07:28;22.80;49.80
35325;DHT22;35135;47.510;19.036;2023-04-01T06:09:54;22.80;49.70
35325;DHT22;35135;47.510;19.036;2023-04-01T06:12:32;22.80;49.80
35325;DHT22;35135;47.510;19.036;2023-04-01T06:55:47;23.00;49.80
35325;DHT22;35135;47.510;19.036;2023-04-01T06:58:21;23.00;49.70
35325;DHT22;35135;47.510;19.036;2023-04-01T07:00:50;23.00;49.80
35325;DHT22;35135;47.510;19.036;2023-04-01T07:05:46;23.10;49.70
35325;DHT22;35135;47.510;19.036;2023-04-01T07:08:18;23.10;49.50
35325;DHT22;35135;47.510;19.036;2023-04-01T07:11:05;23.10;49.60
35325;DHT22;35135;47.510;19.036;2023-04-01T07:13:41;23.20;49.80
35325;DHT22;35135;47.510;19.036;2023-04-01T07:16:43;23.20;49.50
35325;DHT22;35135;47.510;19.036;2023-04-01T07:19:25;23.30;49.50
35325;DHT22;35135;47.510;19.036;2023-04-01T07:21:56;23.20;49.30
35325;DHT22;35135;47.510;19.036;2023-04-01T07:24:26;23.20;49.60
35325;DHT22;35135;47.510;19.036;2023-04-01T07:26:54;23.20;49.40
35325;DHT22;35135;47.510;19.036;2023-04-01T07:29:20;23.30;49.10
35325;DHT22;35135;47.510;19.036;2023-04-01T07:34:23;23.30;49.10
35325;DHT22;35135;47.510;19.036;2023-04-01T07:42:33;23.30;49.00
35325;DHT22;35135;47.510;19.036;2023-04-01T07:45:38;23.30;49.00
35325;DHT22;35135;47.510;19.036;2023-04-01T07:50:56;23.30;48.80
35325;DHT22;35135;47.510;19.036;2023-04-01T07:56:22;23.30;49.00
35325;DHT22;35135;47.510;19.036;2023-04-01T07:59:54;23.30;49.00
35325;DHT22;35135;47.510;19.036;2023-04-01T08:01:56;23.30;49.10
35325;DHT22;35135;47.510;19.036;2023-04-01T08:07:48;23.20;49.00
35325;DHT22;35135;47.510;19.036;2023-04-01T08:10:31;23.20;49.10
35325;DHT22;35135;47.510;19.036;2023-04-01T08:21:48;23.10;49.10
35325;DHT22;35135;47.510;19.036;2023-04-01T08:27:06;23.20;49.10
35325;DHT22;35135;47.510;19.036;2023-04-01T08:29:40;23.20;49.10
35325;DHT22;35135;47.510;19.036;2023-04-01T08:32:17;23.10;49.10
35325;DHT22;35135;47.510;19.036;2023-04-01T08:34:46;23.10;49.00
35325;DHT22;35135;47.510;19.036;2023-04-01T08:37:26;23.10;49.10
35325;DHT22;35135;47.510;19.036;2023-04-01T08:59:51;23.10;49.10
35325;DHT22;35135;47.510;19.036;2023-04-01T09:02:45;23.10;49.10
35325;DHT22;35135;47.510;19.036;2023-04-01T09:17:09;23.00;49.10
35325;DHT22;35135;47.510;19.036;2023-04-01T09:28:16;23.00;49.10
35325;DHT22;35135;47.510;19.036;2023-04-01T09:36:44;23.00;49.20
35325;DHT22;35135;47.510;19.036;2023-04-01T09:39:44;22.90;49.20
35325;DHT22;35135;47.510;19.036;2023-04-01T09:53:14;22.80;49.30
35325;DHT22;35135;47.510;19.036;2023-04-01T10:02:00;22.80;49.30
35325;DHT22;35135;47.510;19.036;2023-04-01T10:31:57;22.80;49.30
35325;DHT22;35135;47.510;19.036;2023-04-01T11:02:55;22.80;49.20
35325;DHT22;35135;47.510;19.036;2023-04-01T11:11:57;22.80;49.20
35325;DHT22;35135;47.510;19.036;2023-04-01T11:14:43;22.80;49.30
35325;DHT22;35135;47.510;19.036;2023-04-01T11:26:15;22.80;49.20
35325;DHT22;35135;47.510;19.036;2023-04-01T11:31:35;22.80;49.20
35325;DHT22;35135;47.510;19.036;2023-04-01T11:45:32;22.70;49.30
35325;DHT22;35135;47.510;19.036;2023-04-01T11:56:29;22.70;49.40
35325;DHT22;35135;47.510;19.036;2023-04-01T12:04:54;22.60;49.30
35325;DHT22;35135;47.510;19.036;2023-04-01T12:10:43;22.70;49.30
35325;DHT22;35135;47.510;19.036;2023-04-01T12:18:55;22.70;49.30
35325;DHT22;35135;47.510;19.036;2023-04-01T12:29:49;22.70;49.20
35325;DHT22;35135;47.510;19.036;2023-04-01T13:12:21;22.80;49.00
35325;DHT22;35135;47.510;19.036;2023-04-01T13:17:46;22.70;49.00
35325;DHT22;35135;47.510;19.036;2023-04-01T13:20:23;22.70;49.00
35325;DHT22;35135;47.510;19.036;2023-04-01T13:28:49;22.70;49.00
35325;DHT22;35135;47.510;19.036;2023-04-01T13:43:04;22.80;49.00
35325;DHT22;35135;47.510;19.036;2023-04-01T13:48:13;22.70;49.00
35325;DHT22;35135;47.510;19.036;2023-04-01T14:26:30;22.80;49.40
35325;DHT22;35135;47.510;19.036;2023-04-01T14:29:28;22.80;49.40
35325;DHT22;35135;47.510;19.036;2023-04-01T14:48:49;22.80;49.40
35325;DHT22;35135;47.510;19.036;2023-04-01T14:51:20;22.80;49.40
35325;DHT22;35135;47.510;19.036;2023-04-01T14:56:49;22.90;49.40
35325;DHT22;35135;47.510;19.036;2023-04-01T15:04:55;22.80;49.30
35325;DHT22;35135;47.510;19.036;2023-04-01T15:07:56;22.80;49.30
35325;DHT22;35135;47.510;19.036;2023-04-01T15:13:36;22.80;49.20
35325;DHT22;35135;47.510;19.036;2023-04-01T15:16:18;22.80;49.40
35325;DHT22;35135;47.510;19.036;2023-04-01T15:24:21;22.90;49.30
35325;DHT22;35135;47.510;19.036;2023-04-01T15:32:23;22.90;49.20
35325;DHT22;35135;47.510;19.036;2023-04-01T15:34:59;22.90;49.20
35325;DHT22;35135;47.510;19.036;2023-04-01T15:48:43;22.90;49.20
35325;DHT22;35135;47.510;19.036;2023-04-01T15:54:06;22.90;49.20
35325;DHT22;35135;47.510;19.036;2023-04-01T15:59:51;22.90;49.20
35325;DHT22;35135;47.510;19.036;2023-04-01T16:07:49;22.90;49.20
35325;DHT22;35135;47.510;19.036;2023-04-01T16:16:14;22.90;49.20
35325;DHT22;35135;47.510;19.036;2023-04-01T16:21:58;22.90;49.10
35325;DHT22;35135;47.510;19.036;2023-04-01T16:27:54;22.80;49.10
35325;DHT22;35135;47.510;19.036;2023-04-01T16:30:32;22.90;49.10
35325;DHT22;35135;47.510;19.036;2023-04-01T16:33:12;22.90;49.20
35325;DHT22;35135;47.510;19.036;2023-04-01T16:36:08;22.80;49.20
35325;DHT22;35135;47.510;19.036;2023-04-01T16:38:47;22.80;49.10
35325;DHT22;35135;47.510;19.036;2023-04-01T16:41:18;22.80;49.20
35325;DHT22;35135;47.510;19.036;2023-04-01T16:43:56;22.90;49.30
35325;DHT22;35135;47.510;19.036;2023-04-01T16:46:43;22.80;49.30
35325;DHT22;35135;47.510;19.036;2023-04-01T16:51:53;22.80;49.20
35325;DHT22;35135;47.510;19.036;2023-04-01T16:54:51;22.80;49.20
35325;DHT22;35135;47.510;19.036;2023-04-01T16:57:23;22.80;49.20
35325;DHT22;35135;47.510;19.036;2023-04-01T17:02:35;22.80;49.30
35325;DHT22;35135;47.510;19.036;2023-04-01T17:05:09;22.80;49.30
35325;DHT22;35135;47.510;19.036;2023-04-01T17:13:27;22.80;50.20
35325;DHT22;35135;47.510;19.036;2023-04-01T17:21:18;22.80;50.30
35325;DHT22;35135;47.510;19.036;2023-04-01T17:24:13;22.80;50.30
35325;DHT22;35135;47.510;19.036;2023-04-01T17:26:44;22.70;50.30
35325;DHT22;35135;47.510;19.036;2023-04-01T17:29:46;22.80;50.40
35325;DHT22;35135;47.510;19.036;2023-04-01T17:35:17;22.80;51.40
35325;DHT22;35135;47.510;19.036;2023-04-01T17:38:17;22.80;51.10
35325;DHT22;35135;47.510;19.036;2023-04-01T17:41:12;22.80;52.00
35325;DHT22;35135;47.510;19.036;2023-04-01T18:00:50;22.80;51.60
35325;DHT22;35135;47.510;19.036;2023-04-01T18:09:00;22.80;52.70
35325;DHT22;35135;47.510;19.036;2023-04-01T18:14:43;22.80;52.50
35325;DHT22;35135;47.510;19.036;2023-04-01T18:17:28;22.80;52.80
35325;DHT22;35135;47.510;19.036;2023-04-01T18:20:11;22.80;53.00
35325;DHT22;35135;47.510;19.036;2023-04-01T18:25:14;22.90;52.80
35325;DHT22;35135;47.510;19.036;2023-04-01T18:27:45;22.90;52.80
35325;DHT22;35135;47.510;19.036;2023-04-01T18:30:30;22.90;52.70
35325;DHT22;35135;47.510;19.036;2023-04-01T18:33:21;22.90;52.80
35325;DHT22;35135;47.510;19.036;2023-04-01T18:38:34;22.90;52.80
35325;DHT22;35135;47.510;19.036;2023-04-01T18:41:25;22.90;52.50
35325;DHT22;35135;47.510;19.036;2023-04-01T18:49:24;22.90;52.50
35325;DHT22;35135;47.510;19.036;2023-04-01T18:51:55;22.90;52.50
35325;DHT22;35135;47.510;19.036;2023-04-01T18:54:24;22.90;52.40
35325;DHT22;35135;47.510;19.036;2023-04-01T18:57:02;22.90;52.30
35325;DHT22;35135;47.510;19.036;2023-04-01T18:59:46;22.90;52.20
35325;DHT22;35135;47.510;19.036;2023-04-01T19:02:27;22.90;52.20
35325;DHT22;35135;47.510;19.036;2023-04-01T19:05:23;23.00;52.40
35325;DHT22;35135;47.510;19.036;2023-04-01T19:07:53;23.00;52.20
35325;DHT22;35135;47.510;19.036;2023-04-01T19:21:12;23.00;52.00
35325;DHT22;35135;47.510;19.036;2023-04-01T19:26:45;23.00;52.00
35325;DHT22;35135;47.510;19.036;2023-04-01T19:38:04;23.00;51.90
35325;DHT22;35135;47.510;19.036;2023-04-01T19:40:46;23.00;51.90
35325;DHT22;35135;47.510;19.036;2023-04-01T19:45:53;23.00;51.90
35325;DHT22;35135;47.510;19.036;2023-04-01T19:48:35;23.00;51.80
35325;DHT22;35135;47.510;19.036;2023-04-01T19:51:21;23.00;51.80
35325;DHT22;35135;47.510;19.036;2023-04-01T19:56:23;23.00;51.80
35325;DHT22;35135;47.510;19.036;2023-04-01T19:59:06;23.00;51.80
35325;DHT22;35135;47.510;19.036;2023-04-01T20:04:28;23.00;51.70
35325;DHT22;35135;47.510;19.036;2023-04-01T20:07:43;23.00;51.60
35325;DHT22;35135;47.510;19.036;2023-04-01T20:12:52;23.00;51.60
35325;DHT22;35135;47.510;19.036;2023-04-01T20:15:40;23.00;51.40
35325;DHT22;35135;47.510;19.036;2023-04-01T20:18:18;23.00;51.40
35325;DHT22;35135;47.510;19.036;2023-04-01T20:21:06;23.00;51.40
35325;DHT22;35135;47.510;19.036;2023-04-01T20:23:55;23.00;51.40
35325;DHT22;35135;47.510;19.036;2023-04-01T20:26:30;23.00;51.60
35325;DHT22;35135;47.510;19.036;2023-04-01T20:37:49;23.00;51.50
35325;DHT22;35135;47.510;19.036;2023-04-01T20:40:36;23.00;51.50
35325;DHT22;35135;47.510;19.036;2023-04-01T20:43:43;23.00;51.50
35325;DHT22;35135;47.510;19.036;2023-04-01T20:46:20;23.00;51.30
35325;DHT22;35135;47.510;19.036;2023-04-01T20:51:32;23.00;51.20
35325;DHT22;35135;47.510;19.036;2023-04-01T20:56:52;23.00;51.10
35325;DHT22;35135;47.510;19.036;2023-04-01T21:07:52;23.00;50.90
35325;DHT22;35135;47.510;19.036;2023-04-01T21:24:48;22.90;50.70
35325;DHT22;35135;47.510;19.036;2023-04-01T21:30:07;22.80;50.70
35325;DHT22;35135;47.510;19.036;2023-04-01T21:39:00;22.80;50.60
35325;DHT22;35135;47.510;19.036;2023-04-01T21:44:35;22.80;50.60
35325;DHT22;35135;47.510;19.036;2023-04-01T22:06:49;22.80;50.50
35325;DHT22;35135;47.510;19.036;2023-04-01T22:09:29;22.70;50.30
35325;DHT22;35135;47.510;19.036;2023-04-01T22:12:23;22.70;50.30
35325;DHT22;35135;47.510;19.036;2023-04-01T22:15:18;22.70;50.40
35325;DHT22;35135;47.510;19.036;2023-04-01T22:18:12;22.70;50.30
35325;DHT22;35135;47.510;19.036;2023-04-01T22:20:56;22.70;50.30
35325;DHT22;35135;47.510;19.036;2023-04-01T22:26:22;22.70;50.30
35325;DHT22;35135;47.510;19.036;2023-04-01T22:29:07;22.70;50.30
35325;DHT22;35135;47.510;19.036;2023-04-01T22:32:04;22.70;50.20
35325;DHT22;35135;47.510;19.036;2023-04-01T22:40:21;22.70;50.20
35325;DHT22;35135;47.510;19.036;2023-04-01T22:53:32;22.60;50.10
35325;DHT22;35135;47.510;19.036;2023-04-01T22:56:07;22.60;50.10
35325;DHT22;35135;47.510;19.036;2023-04-01T22:58:42;22.60;50.10
35325;DHT22;35135;47.510;19.036;2023-04-01T23:01:14;22.60;50.10
35325;DHT22;35135;47.510;19.036;2023-04-01T23:03:41;22.60;50.10
35325;DHT22;35135;47.510;19.036;2023-04-01T23:06:27;22.60;50.10
35325;DHT22;35135;47.510;19.036;2023-04-01T23:11:35;22.60;50.10
35325;DHT22;35135;47.510;19.036;2023-04-01T23:16:41;22.60;50.70
35325;DHT22;35135;47.510;19.036;2023-04-01T23:19:24;22.60;50.10
35325;DHT22;35135;47.510;19.036;2023-04-01T23:24:41;22.60;50.10
35325;DHT22;35135;47.510;19.036;2023-04-01T23:27:21;22.50;50.00
35325;DHT22;35135;47.510;19.036;2023-04-01T23:29:48;22.60;50.10
35325;DHT22;35135;47.510;19.036;2023-04-01T23:32:18;22.50;50.00
35325;DHT22;35135;47.510;19.036;2023-04-01T23:34:56;22.50;50.00
35325;DHT22;35135;47.510;19.036;2023-04-01T23:37:23;22.60;50.00
35325;DHT22;35135;47.510;19.036;2023-04-01T23:39:58;22.50;50.00
35325;DHT22;35135;47.510;19.036;2023-04-01T23:42:29;22.60;50.00
35325;DHT22;35135;47.510;19.036;2023-04-01T23:44:58;22.60;50.00
35325;DHT22;35135;47.510;19.036;2023-04-01T23:47:29;22.50;50.00
35325;DHT22;35135;47.510;19.036;2023-04-01T23:50:01;22.50;50.00
35325;DHT22;35135;47.510;19.036;2023-04-01T23:52:36;22.50;50.00
35325;DHT22;35135;47.510;19.036;2023-04-01T23:57:36;22.50;49.90
